sensor_id;sensor_type;location;lat;lon;timestamp;P1;durP1;ratioP1;P2;durP2;ratioP2
64714;SDS011;51144;53.002;6.506;2022-09-24T00:00:57;52.33;;;41.15;;
64714;SDS011;51144;53.002;6.506;2022-09-24T00:03:23;53.42;;;41.55;;
64714;SDS011;51144;53.002;6.506;2022-09-24T00:05:51;58.70;;;42.58;;
64714;SDS011;51144;53.002;6.506;2022-09-24T00:08:17;49.88;;;42.47;;
64714;SDS011;51144;53.002;6.506;2022-09-24T00:10:44;63.70;;;45.85;;
64714;SDS011;51144;53.002;6.506;2022-09-24T00:13:12;53.10;;;43.97;;
64714;SDS011;51144;53.002;6.506;2022-09-24T00:15:46;49.25;;;41.97;;
64714;SDS011;51144;53.002;6.506;2022-09-24T00:18:14;54.80;;;45.90;;
64714;SDS011;51144;53.002;6.506;2022-09-24T00:20:41;59.03;;;45.38;;
64714;SDS011;51144;53.002;6.506;2022-09-24T00:23:07;51.22;;;44.10;;
64714;SDS011;51144;53.002;6.506;2022-09-24T00:25:41;58.03;;;47.38;;
64714;SDS011;51144;53.002;6.506;2022-09-24T00:28:29;56.90;;;47.35;;
64714;SDS011;51144;53.002;6.506;2022-09-24T00:30:56;58.13;;;47.25;;
64714;SDS011;51144;53.002;6.506;2022-09-24T00:33:26;55.70;;;47.50;;
64714;SDS011;51144;53.002;6.506;2022-09-24T00:35:56;56.90;;;46.58;;
64714;SDS011;51144;53.002;6.506;2022-09-24T00:38:28;56.00;;;46.78;;
64714;SDS011;51144;53.002;6.506;2022-09-24T00:40:55;63.28;;;49.83;;
64714;SDS011;51144;53.002;6.506;2022-09-24T00:43:21;55.97;;;48.30;;
64714;SDS011;51144;53.002;6.506;2022-09-24T00:45:51;62.03;;;51.47;;
64714;SDS011;51144;53.002;6.506;2022-09-24T00:48:19;66.10;;;52.35;;
64714;SDS011;51144;53.002;6.506;2022-09-24T00:50:45;60.45;;;49.83;;
64714;SDS011;51144;53.002;6.506;2022-09-24T00:53:19;62.03;;;50.78;;
64714;SDS011;51144;53.002;6.506;2022-09-24T00:55:52;66.82;;;50.63;;
64714;SDS011;51144;53.002;6.506;2022-09-24T00:58:20;65.22;;;51.55;;
64714;SDS011;51144;53.002;6.506;2022-09-24T01:00:47;65.00;;;51.50;;
64714;SDS011;51144;53.002;6.506;2022-09-24T01:03:21;63.42;;;51.90;;
64714;SDS011;51144;53.002;6.506;2022-09-24T01:05:48;69.57;;;53.35;;
64714;SDS011;51144;53.002;6.506;2022-09-24T01:08:15;69.88;;;53.22;;
64714;SDS011;51144;53.002;6.506;2022-09-24T01:10:46;66.15;;;51.95;;
64714;SDS011;51144;53.002;6.506;2022-09-24T01:24:49;66.10;;;52.80;;
64714;SDS011;51144;53.002;6.506;2022-09-24T01:30:03;69.05;;;53.78;;
64714;SDS011;51144;53.002;6.506;2022-09-24T01:32:33;68.43;;;54.63;;
64714;SDS011;51144;53.002;6.506;2022-09-24T01:37:51;67.75;;;53.17;;
64714;SDS011;51144;53.002;6.506;2022-09-24T01:40:21;66.38;;;54.47;;
64714;SDS011;51144;53.002;6.506;2022-09-24T01:42:51;73.15;;;56.63;;
64714;SDS011;51144;53.002;6.506;2022-09-24T01:45:18;69.72;;;56.63;;
64714;SDS011;51144;53.002;6.506;2022-09-24T01:47:45;80.95;;;57.75;;
64714;SDS011;51144;53.002;6.506;2022-09-24T01:50:13;73.32;;;56.75;;
64714;SDS011;51144;53.002;6.506;2022-09-24T01:55:26;69.45;;;55.42;;
64714;SDS011;51144;53.002;6.506;2022-09-24T01:57:58;80.60;;;59.65;;
64714;SDS011;51144;53.002;6.506;2022-09-24T02:00:29;69.13;;;56.25;;
64714;SDS011;51144;53.002;6.506;2022-09-24T02:02:59;75.03;;;56.25;;
64714;SDS011;51144;53.002;6.506;2022-09-24T02:05:35;75.55;;;58.50;;
64714;SDS011;51144;53.002;6.506;2022-09-24T02:08:25;70.80;;;56.83;;
64714;SDS011;51144;53.002;6.506;2022-09-24T02:13:57;73.10;;;56.03;;
64714;SDS011;51144;53.002;6.506;2022-09-24T02:16:31;70.32;;;56.80;;
64714;SDS011;51144;53.002;6.506;2022-09-24T02:21:34;70.80;;;57.60;;
64714;SDS011;51144;53.002;6.506;2022-09-24T02:24:05;71.65;;;57.13;;
64714;SDS011;51144;53.002;6.506;2022-09-24T02:26:34;74.37;;;57.90;;
64714;SDS011;51144;53.002;6.506;2022-09-24T02:29:00;84.15;;;59.97;;
64714;SDS011;51144;53.002;6.506;2022-09-24T02:31:41;78.78;;;58.40;;
64714;SDS011;51144;53.002;6.506;2022-09-24T02:34:14;71.35;;;54.70;;
64714;SDS011;51144;53.002;6.506;2022-09-24T02:36:48;75.03;;;57.38;;
64714;SDS011;51144;53.002;6.506;2022-09-24T02:39:16;74.18;;;57.58;;
64714;SDS011;51144;53.002;6.506;2022-09-24T02:41:43;73.65;;;57.45;;
64714;SDS011;51144;53.002;6.506;2022-09-24T02:44:14;73.45;;;58.17;;
64714;SDS011;51144;53.002;6.506;2022-09-24T02:46:40;73.47;;;58.30;;
64714;SDS011;51144;53.002;6.506;2022-09-24T02:49:07;75.70;;;59.30;;
64714;SDS011;51144;53.002;6.506;2022-09-24T02:51:34;74.63;;;57.00;;
64714;SDS011;51144;53.002;6.506;2022-09-24T02:54:00;71.72;;;57.03;;
64714;SDS011;51144;53.002;6.506;2022-09-24T02:56:26;76.28;;;57.45;;
64714;SDS011;51144;53.002;6.506;2022-09-24T02:58:53;73.35;;;57.40;;
64714;SDS011;51144;53.002;6.506;2022-09-24T03:01:18;72.82;;;57.35;;
64714;SDS011;51144;53.002;6.506;2022-09-24T03:03:44;79.00;;;58.42;;
64714;SDS011;51144;53.002;6.506;2022-09-24T03:06:10;81.90;;;60.20;;
64714;SDS011;51144;53.002;6.506;2022-09-24T03:08:37;79.25;;;60.35;;
64714;SDS011;51144;53.002;6.506;2022-09-24T03:11:03;80.07;;;58.97;;
64714;SDS011;51144;53.002;6.506;2022-09-24T03:13:29;75.93;;;58.88;;
64714;SDS011;51144;53.002;6.506;2022-09-24T03:15:55;87.10;;;61.75;;
64714;SDS011;51144;53.002;6.506;2022-09-24T03:18:20;80.30;;;59.45;;
64714;SDS011;51144;53.002;6.506;2022-09-24T03:21:02;86.88;;;59.88;;
64714;SDS011;51144;53.002;6.506;2022-09-24T03:23:30;81.33;;;59.20;;
64714;SDS011;51144;53.002;6.506;2022-09-24T03:25:56;78.80;;;57.88;;
64714;SDS011;51144;53.002;6.506;2022-09-24T03:28:22;80.43;;;57.88;;
64714;SDS011;51144;53.002;6.506;2022-09-24T03:30:47;83.90;;;59.05;;
64714;SDS011;51144;53.002;6.506;2022-09-24T03:33:36;79.80;;;58.67;;
64714;SDS011;51144;53.002;6.506;2022-09-24T03:36:03;76.50;;;57.03;;
64714;SDS011;51144;53.002;6.506;2022-09-24T03:38:30;72.85;;;57.40;;
64714;SDS011;51144;53.002;6.506;2022-09-24T03:40:56;72.05;;;56.28;;
64714;SDS011;51144;53.002;6.506;2022-09-24T03:43:22;76.22;;;57.17;;
64714;SDS011;51144;53.002;6.506;2022-09-24T03:45:48;73.78;;;56.92;;
64714;SDS011;51144;53.002;6.506;2022-09-24T03:48:14;83.05;;;60.20;;
64714;SDS011;51144;53.002;6.506;2022-09-24T03:50:41;74.97;;;57.95;;
64714;SDS011;51144;53.002;6.506;2022-09-24T03:53:07;75.30;;;55.03;;
64714;SDS011;51144;53.002;6.506;2022-09-24T03:55:33;73.82;;;58.60;;
64714;SDS011;51144;53.002;6.506;2022-09-24T03:57:59;74.50;;;57.72;;
64714;SDS011;51144;53.002;6.506;2022-09-24T04:00:24;82.70;;;58.70;;
64714;SDS011;51144;53.002;6.506;2022-09-24T04:02:51;74.25;;;57.22;;
64714;SDS011;51144;53.002;6.506;2022-09-24T04:05:17;72.05;;;55.65;;
64714;SDS011;51144;53.002;6.506;2022-09-24T04:07:43;75.63;;;56.33;;
64714;SDS011;51144;53.002;6.506;2022-09-24T04:10:09;78.38;;;58.90;;
64714;SDS011;51144;53.002;6.506;2022-09-24T04:12:35;77.65;;;58.25;;
64714;SDS011;51144;53.002;6.506;2022-09-24T04:15:01;82.50;;;58.45;;
64714;SDS011;51144;53.002;6.506;2022-09-24T04:17:28;75.03;;;57.60;;
64714;SDS011;51144;53.002;6.506;2022-09-24T04:19:57;84.57;;;59.00;;
64714;SDS011;51144;53.002;6.506;2022-09-24T04:22:23;78.50;;;57.95;;
64714;SDS011;51144;53.002;6.506;2022-09-24T04:24:50;78.63;;;57.67;;
64714;SDS011;51144;53.002;6.506;2022-09-24T04:27:16;83.10;;;60.08;;
64714;SDS011;51144;53.002;6.506;2022-09-24T04:29:42;90.07;;;61.10;;
64714;SDS011;51144;53.002;6.506;2022-09-24T04:32:08;93.75;;;61.40;;
64714;SDS011;51144;53.002;6.506;2022-09-24T04:34:33;111.20;;;66.38;;
64714;SDS011;51144;53.002;6.506;2022-09-24T04:36:59;104.57;;;64.68;;
64714;SDS011;51144;53.002;6.506;2022-09-24T04:39:24;113.38;;;67.03;;
64714;SDS011;51144;53.002;6.506;2022-09-24T04:41:51;139.07;;;68.70;;
64714;SDS011;51144;53.002;6.506;2022-09-24T04:44:17;89.15;;;61.55;;
64714;SDS011;51144;53.002;6.506;2022-09-24T04:46:43;91.40;;;62.50;;
64714;SDS011;51144;53.002;6.506;2022-09-24T04:49:09;101.18;;;66.05;;
64714;SDS011;51144;53.002;6.506;2022-09-24T04:51:35;107.80;;;66.18;;
64714;SDS011;51144;53.002;6.506;2022-09-24T04:54:01;112.97;;;67.57;;
64714;SDS011;51144;53.002;6.506;2022-09-24T04:56:27;108.88;;;65.85;;
64714;SDS011;51144;53.002;6.506;2022-09-24T04:58:53;117.20;;;68.88;;
64714;SDS011;51144;53.002;6.506;2022-09-24T05:01:19;107.88;;;67.75;;
64714;SDS011;51144;53.002;6.506;2022-09-24T05:03:45;132.40;;;70.05;;
64714;SDS011;51144;53.002;6.506;2022-09-24T05:06:11;138.82;;;72.75;;
64714;SDS011;51144;53.002;6.506;2022-09-24T05:08:37;112.00;;;68.28;;
64714;SDS011;51144;53.002;6.506;2022-09-24T05:11:03;103.13;;;68.30;;
64714;SDS011;51144;53.002;6.506;2022-09-24T05:13:28;98.93;;;62.67;;
64714;SDS011;51144;53.002;6.506;2022-09-24T05:15:54;102.63;;;65.70;;
64714;SDS011;51144;53.002;6.506;2022-09-24T05:18:20;107.65;;;68.03;;
64714;SDS011;51144;53.002;6.506;2022-09-24T05:20:45;128.48;;;68.82;;
64714;SDS011;51144;53.002;6.506;2022-09-24T05:23:11;107.95;;;65.53;;
64714;SDS011;51144;53.002;6.506;2022-09-24T05:25:37;100.03;;;65.85;;
64714;SDS011;51144;53.002;6.506;2022-09-24T05:28:22;110.70;;;66.72;;
64714;SDS011;51144;53.002;6.506;2022-09-24T05:30:48;92.63;;;62.15;;
64714;SDS011;51144;53.002;6.506;2022-09-24T05:33:14;104.93;;;63.92;;
64714;SDS011;51144;53.002;6.506;2022-09-24T05:35:39;92.38;;;58.22;;
64714;SDS011;51144;53.002;6.506;2022-09-24T05:38:05;117.05;;;64.43;;
64714;SDS011;51144;53.002;6.506;2022-09-24T05:40:30;128.13;;;67.30;;
64714;SDS011;51144;53.002;6.506;2022-09-24T05:43:15;124.85;;;67.15;;
64714;SDS011;51144;53.002;6.506;2022-09-24T05:45:43;156.57;;;72.53;;
64714;SDS011;51144;53.002;6.506;2022-09-24T05:48:10;193.55;;;73.22;;
64714;SDS011;51144;53.002;6.506;2022-09-24T05:50:35;113.32;;;64.22;;
64714;SDS011;51144;53.002;6.506;2022-09-24T05:53:02;248.40;;;80.80;;
64714;SDS011;51144;53.002;6.506;2022-09-24T05:55:29;114.57;;;62.38;;
64714;SDS011;51144;53.002;6.506;2022-09-24T05:57:55;206.63;;;74.82;;
64714;SDS011;51144;53.002;6.506;2022-09-24T06:00:25;169.30;;;70.25;;
64714;SDS011;51144;53.002;6.506;2022-09-24T06:02:51;152.25;;;69.95;;
64714;SDS011;51144;53.002;6.506;2022-09-24T06:05:17;117.88;;;61.78;;
64714;SDS011;51144;53.002;6.506;2022-09-24T06:07:42;100.97;;;57.88;;
64714;SDS011;51144;53.002;6.506;2022-09-24T06:10:08;83.40;;;51.15;;
64714;SDS011;51144;53.002;6.506;2022-09-24T06:12:34;90.93;;;53.92;;
64714;SDS011;51144;53.002;6.506;2022-09-24T06:15:00;87.45;;;50.85;;
64714;SDS011;51144;53.002;6.506;2022-09-24T06:17:26;79.30;;;48.72;;
64714;SDS011;51144;53.002;6.506;2022-09-24T06:19:52;87.88;;;47.03;;
64714;SDS011;51144;53.002;6.506;2022-09-24T06:22:18;70.32;;;41.17;;
64714;SDS011;51144;53.002;6.506;2022-09-24T06:24:45;64.93;;;37.35;;
64714;SDS011;51144;53.002;6.506;2022-09-24T06:27:10;59.03;;;32.88;;
64714;SDS011;51144;53.002;6.506;2022-09-24T06:29:36;56.13;;;33.90;;
64714;SDS011;51144;53.002;6.506;2022-09-24T06:32:02;52.75;;;31.40;;
64714;SDS011;51144;53.002;6.506;2022-09-24T06:34:28;57.33;;;30.42;;
64714;SDS011;51144;53.002;6.506;2022-09-24T06:36:54;46.40;;;25.95;;
64714;SDS011;51144;53.002;6.506;2022-09-24T06:39:23;33.97;;;20.80;;
64714;SDS011;51144;53.002;6.506;2022-09-24T06:41:51;32.33;;;18.77;;
64714;SDS011;51144;53.002;6.506;2022-09-24T06:44:17;37.95;;;18.58;;
64714;SDS011;51144;53.002;6.506;2022-09-24T06:46:43;32.75;;;19.20;;
64714;SDS011;51144;53.002;6.506;2022-09-24T06:49:09;26.70;;;14.93;;
64714;SDS011;51144;53.002;6.506;2022-09-24T06:51:35;31.25;;;13.65;;
64714;SDS011;51144;53.002;6.506;2022-09-24T06:54:01;24.98;;;13.02;;
64714;SDS011;51144;53.002;6.506;2022-09-24T06:56:27;30.88;;;11.35;;
64714;SDS011;51144;53.002;6.506;2022-09-24T06:58:55;27.70;;;9.60;;
64714;SDS011;51144;53.002;6.506;2022-09-24T07:01:20;18.50;;;6.15;;
64714;SDS011;51144;53.002;6.506;2022-09-24T07:03:46;22.27;;;4.47;;
64714;SDS011;51144;53.002;6.506;2022-09-24T07:06:12;7.68;;;1.75;;
64714;SDS011;51144;53.002;6.506;2022-09-24T07:08:37;15.18;;;2.55;;
64714;SDS011;51144;53.002;6.506;2022-09-24T07:11:03;12.70;;;2.30;;
64714;SDS011;51144;53.002;6.506;2022-09-24T07:13:29;13.32;;;1.55;;
64714;SDS011;51144;53.002;6.506;2022-09-24T07:15:55;14.30;;;2.05;;
64714;SDS011;51144;53.002;6.506;2022-09-24T07:18:20;12.95;;;1.45;;
64714;SDS011;51144;53.002;6.506;2022-09-24T07:20:53;11.02;;;0.90;;
64714;SDS011;51144;53.002;6.506;2022-09-24T07:23:19;11.57;;;0.95;;
64714;SDS011;51144;53.002;6.506;2022-09-24T07:25:46;14.50;;;1.67;;
64714;SDS011;51144;53.002;6.506;2022-09-24T07:28:12;18.35;;;1.48;;
64714;SDS011;51144;53.002;6.506;2022-09-24T07:30:40;11.80;;;1.33;;
64714;SDS011;51144;53.002;6.506;2022-09-24T07:33:06;13.98;;;2.40;;
64714;SDS011;51144;53.002;6.506;2022-09-24T07:35:33;12.40;;;2.15;;
64714;SDS011;51144;53.002;6.506;2022-09-24T07:38:02;14.73;;;1.58;;
64714;SDS011;51144;53.002;6.506;2022-09-24T07:40:30;16.23;;;2.40;;
64714;SDS011;51144;53.002;6.506;2022-09-24T07:42:57;12.93;;;1.10;;
64714;SDS011;51144;53.002;6.506;2022-09-24T07:45:24;15.35;;;1.58;;
64714;SDS011;51144;53.002;6.506;2022-09-24T07:48:04;16.42;;;1.45;;
64714;SDS011;51144;53.002;6.506;2022-09-24T07:50:31;14.23;;;1.60;;
64714;SDS011;51144;53.002;6.506;2022-09-24T07:52:58;17.45;;;1.48;;
64714;SDS011;51144;53.002;6.506;2022-09-24T07:55:27;13.93;;;1.15;;
64714;SDS011;51144;53.002;6.506;2022-09-24T07:57:53;19.67;;;1.38;;
64714;SDS011;51144;53.002;6.506;2022-09-24T08:00:20;10.02;;;0.85;;
64714;SDS011;51144;53.002;6.506;2022-09-24T08:02:47;13.07;;;1.30;;
64714;SDS011;51144;53.002;6.506;2022-09-24T08:05:13;10.85;;;0.80;;
64714;SDS011;51144;53.002;6.506;2022-09-24T08:07:41;14.40;;;1.25;;
64714;SDS011;51144;53.002;6.506;2022-09-24T08:10:07;14.18;;;0.70;;
64714;SDS011;51144;53.002;6.506;2022-09-24T08:12:33;13.35;;;0.80;;
64714;SDS011;51144;53.002;6.506;2022-09-24T08:14:59;8.73;;;0.70;;
64714;SDS011;51144;53.002;6.506;2022-09-24T08:17:25;14.07;;;2.45;;
64714;SDS011;51144;53.002;6.506;2022-09-24T08:19:51;8.13;;;0.60;;
64714;SDS011;51144;53.002;6.506;2022-09-24T08:22:21;12.80;;;1.13;;
64714;SDS011;51144;53.002;6.506;2022-09-24T08:24:47;9.38;;;0.80;;
64714;SDS011;51144;53.002;6.506;2022-09-24T08:27:14;11.57;;;0.93;;
64714;SDS011;51144;53.002;6.506;2022-09-24T08:29:41;13.80;;;0.60;;
64714;SDS011;51144;53.002;6.506;2022-09-24T08:32:06;8.35;;;1.08;;
64714;SDS011;51144;53.002;6.506;2022-09-24T08:34:32;8.05;;;0.75;;
64714;SDS011;51144;53.002;6.506;2022-09-24T08:37:02;6.30;;;0.50;;
64714;SDS011;51144;53.002;6.506;2022-09-24T08:39:30;6.30;;;1.20;;
64714;SDS011;51144;53.002;6.506;2022-09-24T08:41:58;6.80;;;0.55;;
64714;SDS011;51144;53.002;6.506;2022-09-24T08:47:36;7.57;;;0.52;;
64714;SDS011;51144;53.002;6.506;2022-09-24T09:11:36;9.38;;;1.08;;
64714;SDS011;51144;53.002;6.506;2022-09-24T09:14:15;14.52;;;1.63;;
64714;SDS011;51144;53.002;6.506;2022-09-24T09:16:57;9.55;;;0.85;;
64714;SDS011;51144;53.002;6.506;2022-09-24T09:19:28;8.00;;;0.80;;
64714;SDS011;51144;53.002;6.506;2022-09-24T09:22:03;12.25;;;0.75;;
64714;SDS011;51144;53.002;6.506;2022-09-24T09:24:40;9.88;;;1.25;;
64714;SDS011;51144;53.002;6.506;2022-09-24T09:27:10;16.20;;;1.15;;
64714;SDS011;51144;53.002;6.506;2022-09-24T09:29:41;10.18;;;1.00;;
64714;SDS011;51144;53.002;6.506;2022-09-24T09:37:42;8.77;;;1.35;;
64714;SDS011;51144;53.002;6.506;2022-09-24T09:40:35;8.10;;;0.68;;
64714;SDS011;51144;53.002;6.506;2022-09-24T09:43:09;10.88;;;1.35;;
64714;SDS011;51144;53.002;6.506;2022-09-24T09:48:27;8.23;;;0.50;;
64714;SDS011;51144;53.002;6.506;2022-09-24T09:51:04;12.48;;;1.40;;
64714;SDS011;51144;53.002;6.506;2022-09-24T09:53:30;14.02;;;1.25;;
64714;SDS011;51144;53.002;6.506;2022-09-24T09:56:00;8.90;;;1.23;;
64714;SDS011;51144;53.002;6.506;2022-09-24T09:58:32;7.32;;;0.63;;
64714;SDS011;51144;53.002;6.506;2022-09-24T10:01:11;6.95;;;0.90;;
64714;SDS011;51144;53.002;6.506;2022-09-24T10:06:11;6.38;;;0.50;;
64714;SDS011;51144;53.002;6.506;2022-09-24T10:08:38;6.18;;;0.40;;
64714;SDS011;51144;53.002;6.506;2022-09-24T10:11:04;8.25;;;0.68;;
64714;SDS011;51144;53.002;6.506;2022-09-24T10:13:32;3.08;;;0.30;;
64714;SDS011;51144;53.002;6.506;2022-09-24T10:16:01;4.55;;;0.32;;
64714;SDS011;51144;53.002;6.506;2022-09-24T10:20:54;12.65;;;1.98;;
64714;SDS011;51144;53.002;6.506;2022-09-24T10:23:25;4.20;;;0.30;;
64714;SDS011;51144;53.002;6.506;2022-09-24T10:26:05;2.78;;;0.20;;
64714;SDS011;51144;53.002;6.506;2022-09-24T10:28:33;3.45;;;0.10;;
64714;SDS011;51144;53.002;6.506;2022-09-24T10:31:23;3.95;;;0.15;;
64714;SDS011;51144;53.002;6.506;2022-09-24T10:33:52;2.08;;;0.10;;
64714;SDS011;51144;53.002;6.506;2022-09-24T10:36:21;1.70;;;0.10;;
64714;SDS011;51144;53.002;6.506;2022-09-24T10:38:48;2.92;;;0.10;;
64714;SDS011;51144;53.002;6.506;2022-09-24T10:41:26;1.33;;;0.32;;
64714;SDS011;51144;53.002;6.506;2022-09-24T10:43:54;4.05;;;0.15;;
64714;SDS011;51144;53.002;6.506;2022-09-24T10:46:34;2.38;;;0.05;;
64714;SDS011;51144;53.002;6.506;2022-09-24T10:57:30;2.78;;;0.10;;
64714;SDS011;51144;53.002;6.506;2022-09-24T11:05:14;2.15;;;0.10;;
64714;SDS011;51144;53.002;6.506;2022-09-24T11:10:20;4.40;;;0.10;;
64714;SDS011;51144;53.002;6.506;2022-09-24T11:16:06;3.63;;;0.25;;
64714;SDS011;51144;53.002;6.506;2022-09-24T11:32:16;7.60;;;0.57;;
64714;SDS011;51144;53.002;6.506;2022-09-24T11:38:14;3.17;;;0.30;;
64714;SDS011;51144;53.002;6.506;2022-09-24T11:40:51;4.35;;;0.30;;
64714;SDS011;51144;53.002;6.506;2022-09-24T11:48:26;2.67;;;0.30;;
64714;SDS011;51144;53.002;6.506;2022-09-24T11:51:09;5.78;;;1.00;;
64714;SDS011;51144;53.002;6.506;2022-09-24T11:53:41;3.13;;;0.30;;
64714;SDS011;51144;53.002;6.506;2022-09-24T11:56:19;4.55;;;0.30;;
64714;SDS011;51144;53.002;6.506;2022-09-24T12:01:37;3.13;;;0.20;;
64714;SDS011;51144;53.002;6.506;2022-09-24T12:04:22;2.83;;;0.28;;
64714;SDS011;51144;53.002;6.506;2022-09-24T12:07:04;3.67;;;0.20;;
64714;SDS011;51144;53.002;6.506;2022-09-24T12:12:14;3.05;;;0.10;;
64714;SDS011;51144;53.002;6.506;2022-09-24T12:14:48;4.20;;;0.30;;
64714;SDS011;51144;53.002;6.506;2022-09-24T12:17:26;4.10;;;0.80;;
64714;SDS011;51144;53.002;6.506;2022-09-24T12:19:59;4.57;;;0.30;;
64714;SDS011;51144;53.002;6.506;2022-09-24T12:22:30;6.95;;;0.38;;
64714;SDS011;51144;53.002;6.506;2022-09-24T12:24:59;5.68;;;0.40;;
64714;SDS011;51144;53.002;6.506;2022-09-24T12:27:33;7.28;;;0.68;;
64714;SDS011;51144;53.002;6.506;2022-09-24T12:38:15;7.00;;;0.30;;
64714;SDS011;51144;53.002;6.506;2022-09-24T12:41:25;7.47;;;0.40;;
64714;SDS011;51144;53.002;6.506;2022-09-24T12:46:24;8.98;;;0.50;;
64714;SDS011;51144;53.002;6.506;2022-09-24T12:48:53;8.05;;;0.20;;
64714;SDS011;51144;53.002;6.506;2022-09-24T12:51:19;3.75;;;0.20;;
64714;SDS011;51144;53.002;6.506;2022-09-24T12:53:57;2.92;;;0.20;;
64714;SDS011;51144;53.002;6.506;2022-09-24T12:56:29;6.10;;;0.40;;
64714;SDS011;51144;53.002;6.506;2022-09-24T12:58:55;6.57;;;0.38;;
64714;SDS011;51144;53.002;6.506;2022-09-24T13:04:00;2.88;;;0.15;;
64714;SDS011;51144;53.002;6.506;2022-09-24T13:06:37;4.43;;;0.28;;
64714;SDS011;51144;53.002;6.506;2022-09-24T13:09:22;2.95;;;0.30;;
64714;SDS011;51144;53.002;6.506;2022-09-24T13:15:00;7.07;;;0.20;;
64714;SDS011;51144;53.002;6.506;2022-09-24T13:17:32;4.55;;;0.20;;
64714;SDS011;51144;53.002;6.506;2022-09-24T13:20:03;9.80;;;1.08;;
64714;SDS011;51144;53.002;6.506;2022-09-24T13:22:32;1.42;;;0.03;;
64714;SDS011;51144;53.002;6.506;2022-09-24T13:25:16;4.88;;;0.47;;
64714;SDS011;51144;53.002;6.506;2022-09-24T13:27:54;7.00;;;0.70;;
64714;SDS011;51144;53.002;6.506;2022-09-24T13:30:41;2.33;;;0.10;;
64714;SDS011;51144;53.002;6.506;2022-09-24T13:41:21;4.75;;;0.57;;
64714;SDS011;51144;53.002;6.506;2022-09-24T13:44:21;2.45;;;0.25;;
64714;SDS011;51144;53.002;6.506;2022-09-24T13:46:55;4.43;;;0.20;;
64714;SDS011;51144;53.002;6.506;2022-09-24T13:49:45;2.05;;;0.10;;
64714;SDS011;51144;53.002;6.506;2022-09-24T13:52:32;0.77;;;0.08;;
64714;SDS011;51144;53.002;6.506;2022-09-24T13:55:15;2.60;;;0.10;;
64714;SDS011;51144;53.002;6.506;2022-09-24T13:57:47;1.15;;;0.00;;
64714;SDS011;51144;53.002;6.506;2022-09-24T14:00:17;0.77;;;0.10;;
64714;SDS011;51144;53.002;6.506;2022-09-24T14:05:34;4.72;;;0.63;;
64714;SDS011;51144;53.002;6.506;2022-09-24T14:08:08;1.92;;;0.05;;
64714;SDS011;51144;53.002;6.506;2022-09-24T14:10:37;1.42;;;0.20;;
64714;SDS011;51144;53.002;6.506;2022-09-24T14:13:14;3.15;;;0.17;;
64714;SDS011;51144;53.002;6.506;2022-09-24T14:15:52;2.80;;;0.38;;
64714;SDS011;51144;53.002;6.506;2022-09-24T14:18:20;5.43;;;0.52;;
64714;SDS011;51144;53.002;6.506;2022-09-24T14:20:49;5.10;;;0.47;;
64714;SDS011;51144;53.002;6.506;2022-09-24T14:23:20;1.63;;;0.20;;
64714;SDS011;51144;53.002;6.506;2022-09-24T14:25:50;5.97;;;0.60;;
64714;SDS011;51144;53.002;6.506;2022-09-24T14:28:17;3.35;;;0.28;;
64714;SDS011;51144;53.002;6.506;2022-09-24T14:30:51;9.20;;;0.43;;
64714;SDS011;51144;53.002;6.506;2022-09-24T14:33:20;6.60;;;0.30;;
64714;SDS011;51144;53.002;6.506;2022-09-24T14:35:50;5.28;;;0.28;;
64714;SDS011;51144;53.002;6.506;2022-09-24T14:38:25;4.32;;;0.40;;
64714;SDS011;51144;53.002;6.506;2022-09-24T14:40:58;5.75;;;0.50;;
64714;SDS011;51144;53.002;6.506;2022-09-24T14:43:43;5.20;;;0.30;;
64714;SDS011;51144;53.002;6.506;2022-09-24T14:49:03;10.35;;;0.93;;
64714;SDS011;51144;53.002;6.506;2022-09-24T14:51:30;4.10;;;0.35;;
64714;SDS011;51144;53.002;6.506;2022-09-24T14:54:17;6.40;;;0.52;;
64714;SDS011;51144;53.002;6.506;2022-09-24T14:57:09;5.15;;;0.40;;
64714;SDS011;51144;53.002;6.506;2022-09-24T14:59:40;6.80;;;0.35;;
64714;SDS011;51144;53.002;6.506;2022-09-24T15:04:42;8.27;;;0.30;;
64714;SDS011;51144;53.002;6.506;2022-09-24T15:07:13;8.90;;;0.40;;
64714;SDS011;51144;53.002;6.506;2022-09-24T15:09:47;4.85;;;0.90;;
64714;SDS011;51144;53.002;6.506;2022-09-24T15:12:18;8.10;;;0.32;;
64714;SDS011;51144;53.002;6.506;2022-09-24T15:17:46;10.85;;;1.23;;
64714;SDS011;51144;53.002;6.506;2022-09-24T15:20:11;6.55;;;0.40;;
64714;SDS011;51144;53.002;6.506;2022-09-24T15:22:37;6.13;;;0.20;;
64714;SDS011;51144;53.002;6.506;2022-09-24T15:25:04;5.55;;;0.35;;
64714;SDS011;51144;53.002;6.506;2022-09-24T15:27:36;8.05;;;0.70;;
64714;SDS011;51144;53.002;6.506;2022-09-24T15:30:03;8.05;;;0.40;;
64714;SDS011;51144;53.002;6.506;2022-09-24T15:32:32;3.35;;;0.30;;
64714;SDS011;51144;53.002;6.506;2022-09-24T15:35:02;7.50;;;0.30;;
64714;SDS011;51144;53.002;6.506;2022-09-24T15:37:33;5.65;;;0.22;;
64714;SDS011;51144;53.002;6.506;2022-09-24T15:40:21;5.85;;;0.60;;
64714;SDS011;51144;53.002;6.506;2022-09-24T15:42:49;6.50;;;0.50;;
64714;SDS011;51144;53.002;6.506;2022-09-24T15:45:19;7.25;;;0.50;;
64714;SDS011;51144;53.002;6.506;2022-09-24T15:47:46;5.15;;;0.60;;
64714;SDS011;51144;53.002;6.506;2022-09-24T15:50:16;6.10;;;0.38;;
64714;SDS011;51144;53.002;6.506;2022-09-24T15:52:46;4.65;;;0.20;;
64714;SDS011;51144;53.002;6.506;2022-09-24T15:55:17;8.38;;;0.43;;
64714;SDS011;51144;53.002;6.506;2022-09-24T15:57:44;8.52;;;0.47;;
64714;SDS011;51144;53.002;6.506;2022-09-24T16:00:11;7.70;;;0.40;;
64714;SDS011;51144;53.002;6.506;2022-09-24T16:02:42;6.70;;;0.43;;
64714;SDS011;51144;53.002;6.506;2022-09-24T16:05:12;6.88;;;1.00;;
64714;SDS011;51144;53.002;6.506;2022-09-24T16:07:38;6.68;;;0.55;;
64714;SDS011;51144;53.002;6.506;2022-09-24T16:10:05;7.68;;;0.43;;
64714;SDS011;51144;53.002;6.506;2022-09-24T16:12:31;8.23;;;1.00;;
64714;SDS011;51144;53.002;6.506;2022-09-24T16:14:57;9.93;;;0.40;;
64714;SDS011;51144;53.002;6.506;2022-09-24T16:17:25;6.95;;;0.43;;
64714;SDS011;51144;53.002;6.506;2022-09-24T16:19:51;9.05;;;0.93;;
64714;SDS011;51144;53.002;6.506;2022-09-24T16:22:17;4.75;;;0.35;;
64714;SDS011;51144;53.002;6.506;2022-09-24T16:24:42;6.68;;;0.52;;
64714;SDS011;51144;53.002;6.506;2022-09-24T16:27:08;3.33;;;0.30;;
64714;SDS011;51144;53.002;6.506;2022-09-24T16:29:34;10.32;;;0.55;;
64714;SDS011;51144;53.002;6.506;2022-09-24T16:32:00;8.68;;;0.40;;
64714;SDS011;51144;53.002;6.506;2022-09-24T16:34:26;7.75;;;0.60;;
64714;SDS011;51144;53.002;6.506;2022-09-24T16:36:52;8.98;;;0.50;;
64714;SDS011;51144;53.002;6.506;2022-09-24T16:39:18;5.22;;;0.75;;
64714;SDS011;51144;53.002;6.506;2022-09-24T16:41:47;16.52;;;0.75;;
64714;SDS011;51144;53.002;6.506;2022-09-24T16:44:13;10.00;;;0.55;;
64714;SDS011;51144;53.002;6.506;2022-09-24T16:46:39;4.53;;;0.52;;
64714;SDS011;51144;53.002;6.506;2022-09-24T16:49:06;9.13;;;0.77;;
64714;SDS011;51144;53.002;6.506;2022-09-24T16:51:31;8.63;;;0.85;;
64714;SDS011;51144;53.002;6.506;2022-09-24T16:53:57;5.60;;;0.40;;
64714;SDS011;51144;53.002;6.506;2022-09-24T16:56:23;6.60;;;1.30;;
64714;SDS011;51144;53.002;6.506;2022-09-24T16:58:49;7.97;;;0.50;;
64714;SDS011;51144;53.002;6.506;2022-09-24T17:01:17;7.40;;;0.40;;
64714;SDS011;51144;53.002;6.506;2022-09-24T17:03:53;8.30;;;0.65;;
64714;SDS011;51144;53.002;6.506;2022-09-24T17:06:22;6.93;;;0.30;;
64714;SDS011;51144;53.002;6.506;2022-09-24T17:08:50;8.13;;;0.45;;
64714;SDS011;51144;53.002;6.506;2022-09-24T17:14:00;9.75;;;1.42;;
64714;SDS011;51144;53.002;6.506;2022-09-24T17:16:26;9.60;;;0.70;;